sensor_id;sensor_type;location;lat;lon;timestamp;temperature;humidity
25208;DHT22;13153;52.316;21.166;2023-09-18T00:00:26;19.80;1.00
25208;DHT22;13153;52.316;21.166;2023-09-18T00:02:51;19.80;1.00
25208;DHT22;13153;52.316;21.166;2023-09-18T00:05:17;19.80;1.00
25208;DHT22;13153;52.316;21.166;2023-09-18T00:07:43;19.70;1.00
25208;DHT22;13153;52.316;21.166;2023-09-18T00:10:10;19.70;1.00
25208;DHT22;13153;52.316;21.166;2023-09-18T00:12:37;19.70;1.00
25208;DHT22;13153;52.316;21.166;2023-09-18T00:15:04;19.70;1.00
25208;DHT22;13153;52.316;21.166;2023-09-18T00:17:31;19.70;1.00
25208;DHT22;13153;52.316;21.166;2023-09-18T00:19:57;19.70;1.00
25208;DHT22;13153;52.316;21.166;2023-09-18T00:22:22;19.70;1.00
25208;DHT22;13153;52.316;21.166;2023-09-18T00:24:50;19.60;1.00
25208;DHT22;13153;52.316;21.166;2023-09-18T00:27:15;19.50;1.00
25208;DHT22;13153;52.316;21.166;2023-09-18T00:29:42;19.50;1.00
25208;DHT22;13153;52.316;21.166;2023-09-18T00:32:08;19.60;1.00
25208;DHT22;13153;52.316;21.166;2023-09-18T00:34:34;19.50;1.00
25208;DHT22;13153;52.316;21.166;2023-09-18T00:37:00;19.50;1.00
25208;DHT22;13153;52.316;21.166;2023-09-18T00:39:26;19.50;1.00
25208;DHT22;13153;52.316;21.166;2023-09-18T00:41:52;19.50;1.00
25208;DHT22;13153;52.316;21.166;2023-09-18T00:44:23;19.40;1.00
25208;DHT22;13153;52.316;21.166;2023-09-18T00:46:51;19.40;1.00
25208;DHT22;13153;52.316;21.166;2023-09-18T00:49:20;19.40;1.00
25208;DHT22;13153;52.316;21.166;2023-09-18T00:51:47;19.40;1.00
25208;DHT22;13153;52.316;21.166;2023-09-18T00:54:19;19.40;1.00
25208;DHT22;13153;52.316;21.166;2023-09-18T00:56:46;19.30;1.00
25208;DHT22;13153;52.316;21.166;2023-09-18T00:59:14;19.30;1.00
25208;DHT22;13153;52.316;21.166;2023-09-18T01:01:41;19.30;1.00
25208;DHT22;13153;52.316;21.166;2023-09-18T01:04:07;19.20;1.00
25208;DHT22;13153;52.316;21.166;2023-09-18T01:06:33;19.20;1.00
25208;DHT22;13153;52.316;21.166;2023-09-18T01:08:59;19.10;1.00
25208;DHT22;13153;52.316;21.166;2023-09-18T01:17:09;19.10;1.00
25208;DHT22;13153;52.316;21.166;2023-09-18T01:19:41;19.10;1.00
25208;DHT22;13153;52.316;21.166;2023-09-18T01:22:16;19.00;1.00
25208;DHT22;13153;52.316;21.166;2023-09-18T01:24:44;19.00;1.00
25208;DHT22;13153;52.316;21.166;2023-09-18T01:27:16;18.90;1.00
25208;DHT22;13153;52.316;21.166;2023-09-18T01:29:46;18.90;1.00
25208;DHT22;13153;52.316;21.166;2023-09-18T01:32:12;18.80;1.00
25208;DHT22;13153;52.316;21.166;2023-09-18T01:35:08;18.80;1.00
25208;DHT22;13153;52.316;21.166;2023-09-18T01:37:37;18.80;1.00
25208;DHT22;13153;52.316;21.166;2023-09-18T01:40:04;18.80;1.00
25208;DHT22;13153;52.316;21.166;2023-09-18T01:42:32;18.80;1.00
25208;DHT22;13153;52.316;21.166;2023-09-18T01:45:00;18.80;1.00
25208;DHT22;13153;52.316;21.166;2023-09-18T01:47:26;18.80;1.00
25208;DHT22;13153;52.316;21.166;2023-09-18T01:49:52;18.90;1.00
25208;DHT22;13153;52.316;21.166;2023-09-18T01:52:18;18.80;1.00
25208;DHT22;13153;52.316;21.166;2023-09-18T01:54:44;18.80;1.00
25208;DHT22;13153;52.316;21.166;2023-09-18T01:57:10;18.80;1.00
25208;DHT22;13153;52.316;21.166;2023-09-18T01:59:37;18.80;1.00
25208;DHT22;13153;52.316;21.166;2023-09-18T02:02:04;18.80;1.00
25208;DHT22;13153;52.316;21.166;2023-09-18T02:04:33;18.80;1.00
25208;DHT22;13153;52.316;21.166;2023-09-18T02:06:59;18.80;1.00
25208;DHT22;13153;52.316;21.166;2023-09-18T02:09:24;18.80;1.00
25208;DHT22;13153;52.316;21.166;2023-09-18T02:11:50;18.80;1.00
25208;DHT22;13153;52.316;21.166;2023-09-18T02:14:16;18.70;1.00
25208;DHT22;13153;52.316;21.166;2023-09-18T02:16:43;18.70;1.00
25208;DHT22;13153;52.316;21.166;2023-09-18T02:19:10;18.70;1.00
25208;DHT22;13153;52.316;21.166;2023-09-18T02:21:37;18.60;1.00
25208;DHT22;13153;52.316;21.166;2023-09-18T02:24:03;18.60;1.00
25208;DHT22;13153;52.316;21.166;2023-09-18T02:26:29;18.60;1.00
25208;DHT22;13153;52.316;21.166;2023-09-18T02:29:04;18.60;1.00
25208;DHT22;13153;52.316;21.166;2023-09-18T02:31:35;18.60;1.00
25208;DHT22;13153;52.316;21.166;2023-09-18T02:34:01;18.60;1.00
25208;DHT22;13153;52.316;21.166;2023-09-18T02:36:26;18.60;1.00
25208;DHT22;13153;52.316;21.166;2023-09-18T02:38:52;18.60;1.00
25208;DHT22;13153;52.316;21.166;2023-09-18T02:41:18;18.50;1.00
25208;DHT22;13153;52.316;21.166;2023-09-18T02:43:44;18.50;1.00
25208;DHT22;13153;52.316;21.166;2023-09-18T02:46:09;18.50;1.00
25208;DHT22;13153;52.316;21.166;2023-09-18T02:48:35;18.50;1.00
25208;DHT22;13153;52.316;21.166;2023-09-18T02:51:01;18.50;1.00
25208;DHT22;13153;52.316;21.166;2023-09-18T02:53:28;18.50;1.00
25208;DHT22;13153;52.316;21.166;2023-09-18T02:55:55;18.50;1.00
25208;DHT22;13153;52.316;21.166;2023-09-18T02:58:23;18.50;1.00
25208;DHT22;13153;52.316;21.166;2023-09-18T03:00:55;18.50;1.00
25208;DHT22;13153;52.316;21.166;2023-09-18T03:03:23;18.50;1.00
25208;DHT22;13153;52.316;21.166;2023-09-18T03:05:50;18.50;1.00
25208;DHT22;13153;52.316;21.166;2023-09-18T03:08:16;18.50;1.00
25208;DHT22;13153;52.316;21.166;2023-09-18T03:10:42;18.50;1.00
25208;DHT22;13153;52.316;21.166;2023-09-18T03:13:10;18.50;1.00
25208;DHT22;13153;52.316;21.166;2023-09-18T03:15:37;18.50;1.00
25208;DHT22;13153;52.316;21.166;2023-09-18T03:18:04;18.50;1.00
25208;DHT22;13153;52.316;21.166;2023-09-18T03:20:32;18.40;1.00
25208;DHT22;13153;52.316;21.166;2023-09-18T03:23:00;18.40;1.00
25208;DHT22;13153;52.316;21.166;2023-09-18T03:25:28;18.30;1.00
25208;DHT22;13153;52.316;21.166;2023-09-18T03:27:55;18.30;1.00
25208;DHT22;13153;52.316;21.166;2023-09-18T03:30:23;18.10;1.00
25208;DHT22;13153;52.316;21.166;2023-09-18T03:32:50;18.20;1.00
25208;DHT22;13153;52.316;21.166;2023-09-18T03:35:16;18.10;1.00
25208;DHT22;13153;52.316;21.166;2023-09-18T03:37:48;18.10;1.00
25208;DHT22;13153;52.316;21.166;2023-09-18T03:40:18;18.10;1.00
25208;DHT22;13153;52.316;21.166;2023-09-18T03:42:45;18.20;1.00
25208;DHT22;13153;52.316;21.166;2023-09-18T03:45:12;18.20;1.00
25208;DHT22;13153;52.316;21.166;2023-09-18T03:47:39;18.30;1.00
25208;DHT22;13153;52.316;21.166;2023-09-18T03:50:10;18.30;1.00
25208;DHT22;13153;52.316;21.166;2023-09-18T03:52:38;18.30;1.00
25208;DHT22;13153;52.316;21.166;2023-09-18T03:55:05;18.30;1.00
25208;DHT22;13153;52.316;21.166;2023-09-18T03:57:32;18.30;1.00
25208;DHT22;13153;52.316;21.166;2023-09-18T03:59:58;18.30;1.00
25208;DHT22;13153;52.316;21.166;2023-09-18T04:02:25;18.20;1.00
25208;DHT22;13153;52.316;21.166;2023-09-18T04:04:53;18.20;1.00
25208;DHT22;13153;52.316;21.166;2023-09-18T04:07:19;18.30;1.00
25208;DHT22;13153;52.316;21.166;2023-09-18T04:09:46;18.30;1.00
25208;DHT22;13153;52.316;21.166;2023-09-18T04:12:12;18.30;1.00
25208;DHT22;13153;52.316;21.166;2023-09-18T04:14:38;18.20;1.00
25208;DHT22;13153;52.316;21.166;2023-09-18T04:17:04;18.20;1.00
25208;DHT22;13153;52.316;21.166;2023-09-18T04:19:30;18.20;1.00
25208;DHT22;13153;52.316;21.166;2023-09-18T04:21:56;18.20;1.00
25208;DHT22;13153;52.316;21.166;2023-09-18T04:24:22;18.30;1.00
25208;DHT22;13153;52.316;21.166;2023-09-18T04:26:48;18.20;1.00
25208;DHT22;13153;52.316;21.166;2023-09-18T04:29:16;18.30;1.00
25208;DHT22;13153;52.316;21.166;2023-09-18T04:31:43;18.30;1.00
25208;DHT22;13153;52.316;21.166;2023-09-18T04:34:09;18.30;1.00
25208;DHT22;13153;52.316;21.166;2023-09-18T04:36:35;18.30;1.00
25208;DHT22;13153;52.316;21.166;2023-09-18T04:39:03;18.20;1.00
25208;DHT22;13153;52.316;21.166;2023-09-18T04:41:30;18.30;1.00
25208;DHT22;13153;52.316;21.166;2023-09-18T04:43:56;18.20;1.00
25208;DHT22;13153;52.316;21.166;2023-09-18T04:46:22;18.20;1.00
25208;DHT22;13153;52.316;21.166;2023-09-18T04:48:50;18.20;1.00
25208;DHT22;13153;52.316;21.166;2023-09-18T04:51:16;18.20;1.00
25208;DHT22;13153;52.316;21.166;2023-09-18T04:53:42;18.20;1.00
25208;DHT22;13153;52.316;21.166;2023-09-18T04:56:08;18.30;1.00
25208;DHT22;13153;52.316;21.166;2023-09-18T04:58:36;18.30;1.00
25208;DHT22;13153;52.316;21.166;2023-09-18T05:01:03;18.20;1.00
25208;DHT22;13153;52.316;21.166;2023-09-18T05:03:32;18.20;1.00
25208;DHT22;13153;52.316;21.166;2023-09-18T05:05:59;18.20;1.00
25208;DHT22;13153;52.316;21.166;2023-09-18T05:08:25;18.20;1.00
25208;DHT22;13153;52.316;21.166;2023-09-18T05:10:51;18.20;1.00
25208;DHT22;13153;52.316;21.166;2023-09-18T05:13:16;18.20;1.00
25208;DHT22;13153;52.316;21.166;2023-09-18T05:15:42;18.30;1.00
25208;DHT22;13153;52.316;21.166;2023-09-18T05:18:08;18.30;1.00
25208;DHT22;13153;52.316;21.166;2023-09-18T05:20:34;18.30;1.00
25208;DHT22;13153;52.316;21.166;2023-09-18T05:23:00;18.40;1.00
25208;DHT22;13153;52.316;21.166;2023-09-18T05:25:29;18.30;1.00
25208;DHT22;13153;52.316;21.166;2023-09-18T05:27:59;18.40;1.00
25208;DHT22;13153;52.316;21.166;2023-09-18T05:30:31;18.40;1.00
25208;DHT22;13153;52.316;21.166;2023-09-18T05:33:01;18.50;1.00
25208;DHT22;13153;52.316;21.166;2023-09-18T05:35:36;18.50;1.00
25208;DHT22;13153;52.316;21.166;2023-09-18T05:38:11;18.60;1.00
25208;DHT22;13153;52.316;21.166;2023-09-18T05:40:39;18.70;1.00
25208;DHT22;13153;52.316;21.166;2023-09-18T05:43:05;18.80;1.00
25208;DHT22;13153;52.316;21.166;2023-09-18T05:45:31;19.00;1.00
25208;DHT22;13153;52.316;21.166;2023-09-18T05:47:58;19.10;1.00
25208;DHT22;13153;52.316;21.166;2023-09-18T05:50:30;19.20;1.00
25208;DHT22;13153;52.316;21.166;2023-09-18T05:52:57;19.30;1.00
25208;DHT22;13153;52.316;21.166;2023-09-18T05:55:33;19.50;1.00
25208;DHT22;13153;52.316;21.166;2023-09-18T05:58:00;19.60;1.00
25208;DHT22;13153;52.316;21.166;2023-09-18T06:00:27;19.80;1.00
25208;DHT22;13153;52.316;21.166;2023-09-18T06:02:52;19.90;1.00
25208;DHT22;13153;52.316;21.166;2023-09-18T06:05:18;20.10;1.00
25208;DHT22;13153;52.316;21.166;2023-09-18T06:07:50;20.30;1.00
25208;DHT22;13153;52.316;21.166;2023-09-18T06:10:16;20.90;99.90
25208;DHT22;13153;52.316;21.166;2023-09-18T06:12:43;21.30;1.00
25208;DHT22;13153;52.316;21.166;2023-09-18T06:15:10;21.40;1.00
25208;DHT22;13153;52.316;21.166;2023-09-18T06:17:41;21.40;1.00
25208;DHT22;13153;52.316;21.166;2023-09-18T06:20:11;21.40;1.00
25208;DHT22;13153;52.316;21.166;2023-09-18T06:22:39;21.50;1.00
25208;DHT22;13153;52.316;21.166;2023-09-18T06:39:27;22.10;1.00
25208;DHT22;13153;52.316;21.166;2023-09-18T06:41:53;24.10;39.20
25208;DHT22;13153;52.316;21.166;2023-09-18T06:44:19;24.50;99.90
25208;DHT22;13153;52.316;21.166;2023-09-18T06:46:45;24.80;1.00
25208;DHT22;13153;52.316;21.166;2023-09-18T06:49:10;25.10;99.90
25208;DHT22;13153;52.316;21.166;2023-09-18T06:51:36;25.20;1.00
25208;DHT22;13153;52.316;21.166;2023-09-18T06:54:02;25.10;1.00
25208;DHT22;13153;52.316;21.166;2023-09-18T06:56:28;25.10;1.00
25208;DHT22;13153;52.316;21.166;2023-09-18T06:58:54;25.20;1.00
25208;DHT22;13153;52.316;21.166;2023-09-18T07:01:21;25.20;99.90
25208;DHT22;13153;52.316;21.166;2023-09-18T07:03:47;25.30;99.90
25208;DHT22;13153;52.316;21.166;2023-09-18T07:06:14;25.50;99.90
25208;DHT22;13153;52.316;21.166;2023-09-18T07:08:47;25.50;99.90
25208;DHT22;13153;52.316;21.166;2023-09-18T07:11:15;25.70;99.90
25208;DHT22;13153;52.316;21.166;2023-09-18T07:13:42;25.70;99.90
25208;DHT22;13153;52.316;21.166;2023-09-18T07:16:11;25.80;99.90
25208;DHT22;13153;52.316;21.166;2023-09-18T07:18:37;25.70;26.80
25208;DHT22;13153;52.316;21.166;2023-09-18T07:21:03;25.80;57.70
25208;DHT22;13153;52.316;21.166;2023-09-18T07:23:29;25.70;99.90
25208;DHT22;13153;52.316;21.166;2023-09-18T07:25:55;25.70;99.90
25208;DHT22;13153;52.316;21.166;2023-09-18T07:28:24;25.70;99.90
25208;DHT22;13153;52.316;21.166;2023-09-18T07:30:50;25.70;75.80
25208;DHT22;13153;52.316;21.166;2023-09-18T07:33:16;25.70;4.40
25208;DHT22;13153;52.316;21.166;2023-09-18T07:35:48;25.60;4.90
25208;DHT22;13153;52.316;21.166;2023-09-18T07:38:17;25.70;1.00
25208;DHT22;13153;52.316;21.166;2023-09-18T07:40:45;25.60;1.00
25208;DHT22;13153;52.316;21.166;2023-09-18T07:43:12;25.50;1.00
25208;DHT22;13153;52.316;21.166;2023-09-18T07:45:39;25.40;1.00
25208;DHT22;13153;52.316;21.166;2023-09-18T07:48:06;25.40;1.00
25208;DHT22;13153;52.316;21.166;2023-09-18T07:50:34;25.50;99.90
25208;DHT22;13153;52.316;21.166;2023-09-18T07:53:01;25.60;99.90
25208;DHT22;13153;52.316;21.166;2023-09-18T10:48:07;26.00;1.00
25208;DHT22;13153;52.316;21.166;2023-09-18T10:50:34;26.20;99.90
25208;DHT22;13153;52.316;21.166;2023-09-18T10:53:00;26.30;99.90
25208;DHT22;13153;52.316;21.166;2023-09-18T10:55:27;26.40;99.90
25208;DHT22;13153;52.316;21.166;2023-09-18T10:57:54;26.40;99.90
25208;DHT22;13153;52.316;21.166;2023-09-18T11:00:24;26.40;99.90
25208;DHT22;13153;52.316;21.166;2023-09-18T11:02:53;26.40;99.90
25208;DHT22;13153;52.316;21.166;2023-09-18T11:05:49;26.50;99.90
25208;DHT22;13153;52.316;21.166;2023-09-18T11:08:53;26.50;99.90
25208;DHT22;13153;52.316;21.166;2023-09-18T11:11:27;26.50;50.10
25208;DHT22;13153;52.316;21.166;2023-09-18T11:13:56;26.50;1.00
25208;DHT22;13153;52.316;21.166;2023-09-18T11:21:31;26.30;1.00
25208;DHT22;13153;52.316;21.166;2023-09-18T11:24:06;26.30;1.00
25208;DHT22;13153;52.316;21.166;2023-09-18T11:26:44;26.20;1.00
25208;DHT22;13153;52.316;21.166;2023-09-18T11:29:14;26.20;1.00
25208;DHT22;13153;52.316;21.166;2023-09-18T11:31:47;26.20;1.00
25208;DHT22;13153;52.316;21.166;2023-09-18T11:34:21;26.20;1.00
25208;DHT22;13153;52.316;21.166;2023-09-18T11:36:49;26.20;1.00
25208;DHT22;13153;52.316;21.166;2023-09-18T11:39:39;26.30;1.00
25208;DHT22;13153;52.316;21.166;2023-09-18T11:42:26;26.20;8.00
25208;DHT22;13153;52.316;21.166;2023-09-18T11:44:54;26.20;1.00
25208;DHT22;13153;52.316;21.166;2023-09-18T11:47:25;26.20;1.00
25208;DHT22;13153;52.316;21.166;2023-09-18T11:49:59;26.20;1.00
25208;DHT22;13153;52.316;21.166;2023-09-18T11:52:29;26.20;1.00
25208;DHT22;13153;52.316;21.166;2023-09-18T11:54:58;26.10;1.00
25208;DHT22;13153;52.316;21.166;2023-09-18T11:57:25;26.10;1.00
25208;DHT22;13153;52.316;21.166;2023-09-18T11:59:52;26.10;1.00
25208;DHT22;13153;52.316;21.166;2023-09-18T12:02:31;26.10;1.00
25208;DHT22;13153;52.316;21.166;2023-09-18T12:05:11;26.10;1.00
25208;DHT22;13153;52.316;21.166;2023-09-18T12:07:41;26.10;1.00
25208;DHT22;13153;52.316;21.166;2023-09-18T12:10:14;26.10;1.00
25208;DHT22;13153;52.316;21.166;2023-09-18T12:12:43;26.00;1.00
25208;DHT22;13153;52.316;21.166;2023-09-18T12:15:17;26.10;1.00
25208;DHT22;13153;52.316;21.166;2023-09-18T12:17:45;26.10;1.00
25208;DHT22;13153;52.316;21.166;2023-09-18T12:20:18;26.10;1.00
25208;DHT22;13153;52.316;21.166;2023-09-18T12:22:50;26.10;1.00
25208;DHT22;13153;52.316;21.166;2023-09-18T12:25:16;26.10;1.00
25208;DHT22;13153;52.316;21.166;2023-09-18T12:27:44;26.20;1.00
25208;DHT22;13153;52.316;21.166;2023-09-18T12:30:12;26.20;1.00
25208;DHT22;13153;52.316;21.166;2023-09-18T12:32:45;26.20;1.00
25208;DHT22;13153;52.316;21.166;2023-09-18T12:35:13;26.20;1.00
25208;DHT22;13153;52.316;21.166;2023-09-18T12:37:41;26.20;1.00
25208;DHT22;13153;52.316;21.166;2023-09-18T12:40:21;26.30;1.00
25208;DHT22;13153;52.316;21.166;2023-09-18T12:42:48;26.30;1.00
25208;DHT22;13153;52.316;21.166;2023-09-18T12:45:14;26.30;1.00
25208;DHT22;13153;52.316;21.166;2023-09-18T12:47:41;26.40;1.00
25208;DHT22;13153;52.316;21.166;2023-09-18T12:50:08;26.40;1.00
25208;DHT22;13153;52.316;21.166;2023-09-18T12:52:36;26.50;1.00
25208;DHT22;13153;52.316;21.166;2023-09-18T12:55:02;26.50;1.00
25208;DHT22;13153;52.316;21.166;2023-09-18T12:57:34;26.60;1.00
25208;DHT22;13153;52.316;21.166;2023-09-18T13:00:08;26.60;1.00
25208;DHT22;13153;52.316;21.166;2023-09-18T13:02:39;26.70;1.00
25208;DHT22;13153;52.316;21.166;2023-09-18T13:05:05;26.70;1.00
25208;DHT22;13153;52.316;21.166;2023-09-18T13:07:43;26.70;1.00
25208;DHT22;13153;52.316;21.166;2023-09-18T13:10:13;26.60;1.00
25208;DHT22;13153;52.316;21.166;2023-09-18T13:12:41;26.60;1.00
25208;DHT22;13153;52.316;21.166;2023-09-18T13:15:28;26.50;1.00
25208;DHT22;13153;52.316;21.166;2023-09-18T13:17:56;26.60;1.00
25208;DHT22;13153;52.316;21.166;2023-09-18T13:20:26;26.50;1.00
25208;DHT22;13153;52.316;21.166;2023-09-18T13:22:58;26.50;1.00
25208;DHT22;13153;52.316;21.166;2023-09-18T13:25:37;26.50;1.00
25208;DHT22;13153;52.316;21.166;2023-09-18T13:28:07;26.50;1.00
25208;DHT22;13153;52.316;21.166;2023-09-18T13:30:36;26.50;1.00
25208;DHT22;13153;52.316;21.166;2023-09-18T13:33:16;26.70;1.00
25208;DHT22;13153;52.316;21.166;2023-09-18T13:35:45;26.70;1.00
25208;DHT22;13153;52.316;21.166;2023-09-18T13:38:11;26.80;1.00
25208;DHT22;13153;52.316;21.166;2023-09-18T13:40:38;26.80;1.00
25208;DHT22;13153;52.316;21.166;2023-09-18T13:43:06;26.80;1.00
25208;DHT22;13153;52.316;21.166;2023-09-18T13:45:34;26.90;1.00
25208;DHT22;13153;52.316;21.166;2023-09-18T13:48:02;26.80;1.00
25208;DHT22;13153;52.316;21.166;2023-09-18T13:50:28;26.80;1.00
25208;DHT22;13153;52.316;21.166;2023-09-18T13:52:54;26.80;1.00
25208;DHT22;13153;52.316;21.166;2023-09-18T13:55:20;26.90;1.00
25208;DHT22;13153;52.316;21.166;2023-09-18T13:57:46;26.90;1.00
25208;DHT22;13153;52.316;21.166;2023-09-18T14:00:13;26.90;1.00
25208;DHT22;13153;52.316;21.166;2023-09-18T14:02:40;26.90;1.00
25208;DHT22;13153;52.316;21.166;2023-09-18T14:05:07;26.80;1.00
25208;DHT22;13153;52.316;21.166;2023-09-18T14:07:35;26.80;1.00
25208;DHT22;13153;52.316;21.166;2023-09-18T14:10:05;26.70;1.00
25208;DHT22;13153;52.316;21.166;2023-09-18T14:12:36;26.70;1.00
25208;DHT22;13153;52.316;21.166;2023-09-18T14:15:07;26.70;1.00
25208;DHT22;13153;52.316;21.166;2023-09-18T14:17:37;26.70;1.00
25208;DHT22;13153;52.316;21.166;2023-09-18T14:20:04;26.70;1.00
25208;DHT22;13153;52.316;21.166;2023-09-18T14:22:35;26.70;1.00
25208;DHT22;13153;52.316;21.166;2023-09-18T14:25:02;26.70;1.00
25208;DHT22;13153;52.316;21.166;2023-09-18T14:27:33;26.70;1.00
25208;DHT22;13153;52.316;21.166;2023-09-18T14:30:00;26.80;1.00
25208;DHT22;13153;52.316;21.166;2023-09-18T14:32:29;26.80;1.00
25208;DHT22;13153;52.316;21.166;2023-09-18T14:34:55;26.80;1.00
25208;DHT22;13153;52.316;21.166;2023-09-18T14:37:20;26.70;1.00
25208;DHT22;13153;52.316;21.166;2023-09-18T14:39:46;26.70;1.00
25208;DHT22;13153;52.316;21.166;2023-09-18T14:42:12;26.70;1.00
25208;DHT22;13153;52.316;21.166;2023-09-18T14:44:38;26.70;1.00
25208;DHT22;13153;52.316;21.166;2023-09-18T14:47:12;26.70;1.00
25208;DHT22;13153;52.316;21.166;2023-09-18T14:49:38;26.60;1.00
25208;DHT22;13153;52.316;21.166;2023-09-18T14:52:04;26.50;1.00
25208;DHT22;13153;52.316;21.166;2023-09-18T14:54:30;26.50;1.00
25208;DHT22;13153;52.316;21.166;2023-09-18T14:56:56;26.50;1.00
25208;DHT22;13153;52.316;21.166;2023-09-18T14:59:23;26.50;1.00
25208;DHT22;13153;52.316;21.166;2023-09-18T15:01:49;26.40;1.00
25208;DHT22;13153;52.316;21.166;2023-09-18T15:04:14;26.40;1.00
25208;DHT22;13153;52.316;21.166;2023-09-18T15:06:40;26.40;1.00
25208;DHT22;13153;52.316;21.166;2023-09-18T15:09:06;26.40;1.00
25208;DHT22;13153;52.316;21.166;2023-09-18T15:11:33;26.40;1.00
25208;DHT22;13153;52.316;21.166;2023-09-18T15:14:01;26.40;1.00
25208;DHT22;13153;52.316;21.166;2023-09-18T15:16:27;26.30;1.00
25208;DHT22;13153;52.316;21.166;2023-09-18T15:18:56;26.30;1.00
25208;DHT22;13153;52.316;21.166;2023-09-18T15:21:26;26.30;1.00
25208;DHT22;13153;52.316;21.166;2023-09-18T15:23:51;26.30;1.00
25208;DHT22;13153;52.316;21.166;2023-09-18T15:26:17;26.20;1.00
25208;DHT22;13153;52.316;21.166;2023-09-18T15:28:43;26.30;1.00
25208;DHT22;13153;52.316;21.166;2023-09-18T15:31:09;26.30;1.00
25208;DHT22;13153;52.316;21.166;2023-09-18T15:33:34;26.30;1.00
25208;DHT22;13153;52.316;21.166;2023-09-18T15:36:00;26.30;1.00
25208;DHT22;13153;52.316;21.166;2023-09-18T15:38:26;26.20;1.00
25208;DHT22;13153;52.316;21.166;2023-09-18T15:40:52;26.20;1.00
25208;DHT22;13153;52.316;21.166;2023-09-18T15:43:18;26.20;1.00
25208;DHT22;13153;52.316;21.166;2023-09-18T15:45:44;26.20;1.00
25208;DHT22;13153;52.316;21.166;2023-09-18T15:48:10;26.10;1.00
25208;DHT22;13153;52.316;21.166;2023-09-18T15:50:36;26.10;1.00
25208;DHT22;13153;52.316;21.166;2023-09-18T15:53:01;26.00;1.00
25208;DHT22;13153;52.316;21.166;2023-09-18T15:55:27;25.90;1.00
25208;DHT22;13153;52.316;21.166;2023-09-18T15:57:53;25.80;1.00
25208;DHT22;13153;52.316;21.166;2023-09-18T16:00:19;25.70;1.00
25208;DHT22;13153;52.316;21.166;2023-09-18T16:02:45;25.60;1.00
25208;DHT22;13153;52.316;21.166;2023-09-18T16:05:11;25.60;1.00
25208;DHT22;13153;52.316;21.166;2023-09-18T16:07:38;25.50;1.00
25208;DHT22;13153;52.316;21.166;2023-09-18T16:10:06;25.40;1.00
25208;DHT22;13153;52.316;21.166;2023-09-18T16:12:34;25.40;1.00
25208;DHT22;13153;52.316;21.166;2023-09-18T16:15:01;25.30;1.00
25208;DHT22;13153;52.316;21.166;2023-09-18T16:17:28;25.30;1.00
25208;DHT22;13153;52.316;21.166;2023-09-18T16:19:54;25.20;1.00
25208;DHT22;13153;52.316;21.166;2023-09-18T16:22:20;25.20;1.00
25208;DHT22;13153;52.316;21.166;2023-09-18T16:24:46;25.10;1.00
25208;DHT22;13153;52.316;21.166;2023-09-18T16:27:12;25.10;1.00
25208;DHT22;13153;52.316;21.166;2023-09-18T16:29:40;25.00;1.00
25208;DHT22;13153;52.316;21.166;2023-09-18T16:32:06;25.10;1.00
25208;DHT22;13153;52.316;21.166;2023-09-18T16:34:35;24.90;1.00
25208;DHT22;13153;52.316;21.166;2023-09-18T16:37:02;25.00;1.00
25208;DHT22;13153;52.316;21.166;2023-09-18T16:39:29;24.90;1.00
25208;DHT22;13153;52.316;21.166;2023-09-18T16:41:55;24.90;1.00
25208;DHT22;13153;52.316;21.166;2023-09-18T16:44:21;24.80;1.00
25208;DHT22;13153;52.316;21.166;2023-09-18T16:46:47;24.80;1.00
25208;DHT22;13153;52.316;21.166;2023-09-18T16:49:13;24.80;1.00
25208;DHT22;13153;52.316;21.166;2023-09-18T16:51:43;24.70;1.00
25208;DHT22;13153;52.316;21.166;2023-09-18T16:54:09;24.70;1.00
25208;DHT22;13153;52.316;21.166;2023-09-18T16:56:35;24.60;1.00
25208;DHT22;13153;52.316;21.166;2023-09-18T16:59:01;24.60;1.00
25208;DHT22;13153;52.316;21.166;2023-09-18T17:01:27;24.60;1.00
25208;DHT22;13153;52.316;21.166;2023-09-18T17:03:54;24.50;1.00
25208;DHT22;13153;52.316;21.166;2023-09-18T17:06:20;24.50;1.00
25208;DHT22;13153;52.316;21.166;2023-09-18T17:08:47;24.50;1.00
25208;DHT22;13153;52.316;21.166;2023-09-18T17:11:14;24.50;1.00
25208;DHT22;13153;52.316;21.166;2023-09-18T17:13:42;24.40;1.00
25208;DHT22;13153;52.316;21.166;2023-09-18T17:16:08;24.40;1.00
25208;DHT22;13153;52.316;21.166;2023-09-18T17:18:34;24.40;1.00
25208;DHT22;13153;52.316;21.166;2023-09-18T17:21:02;24.40;1.00
25208;DHT22;13153;52.316;21.166;2023-09-18T17:23:28;24.30;1.00
25208;DHT22;13153;52.316;21.166;2023-09-18T17:25:55;24.30;1.00
25208;DHT22;13153;52.316;21.166;2023-09-18T17:28:21;24.30;14.80
25208;DHT22;13153;52.316;21.166;2023-09-18T17:30:47;24.20;11.20
25208;DHT22;13153;52.316;21.166;2023-09-18T17:33:15;24.20;24.10
25208;DHT22;13153;52.316;21.166;2023-09-18T17:35:41;24.10;43.50
25208;DHT22;13153;52.316;21.166;2023-09-18T17:38:10;24.10;49.10
25208;DHT22;13153;52.316;21.166;2023-09-18T17:40:36;24.10;82.60
25208;DHT22;13153;52.316;21.166;2023-09-18T17:43:02;24.10;82.90
25208;DHT22;13153;52.316;21.166;2023-09-18T17:45:28;24.00;99.90
25208;DHT22;13153;52.316;21.166;2023-09-18T17:47:54;23.90;99.90
25208;DHT22;13153;52.316;21.166;2023-09-18T17:50:20;23.90;99.90
25208;DHT22;13153;52.316;21.166;2023-09-18T17:52:45;23.90;99.90
25208;DHT22;13153;52.316;21.166;2023-09-18T17:55:11;23.90;99.90
25208;DHT22;13153;52.316;21.166;2023-09-18T17:57:37;23.80;99.90
25208;DHT22;13153;52.316;21.166;2023-09-18T18:00:05;23.80;99.90
25208;DHT22;13153;52.316;21.166;2023-09-18T18:02:37;23.70;99.90
25208;DHT22;13153;52.316;21.166;2023-09-18T18:05:06;23.70;99.90
25208;DHT22;13153;52.316;21.166;2023-09-18T18:07:33;23.70;99.90
25208;DHT22;13153;52.316;21.166;2023-09-18T18:09:59;23.60;99.90
25208;DHT22;13153;52.316;21.166;2023-09-18T18:12:24;23.60;99.90
25208;DHT22;13153;52.316;21.166;2023-09-18T18:14:50;23.50;1.00
25208;DHT22;13153;52.316;21.166;2023-09-18T18:17:18;23.50;1.00
25208;DHT22;13153;52.316;21.166;2023-09-18T18:19:44;23.50;1.00
25208;DHT22;13153;52.316;21.166;2023-09-18T18:22:10;23.40;1.00
25208;DHT22;13153;52.316;21.166;2023-09-18T18:24:36;23.40;1.00
25208;DHT22;13153;52.316;21.166;2023-09-18T18:27:02;23.30;1.00
25208;DHT22;13153;52.316;21.166;2023-09-18T18:29:28;23.40;1.00
25208;DHT22;13153;52.316;21.166;2023-09-18T18:31:54;23.30;1.00
25208;DHT22;13153;52.316;21.166;2023-09-18T18:34:20;23.30;1.00
25208;DHT22;13153;52.316;21.166;2023-09-18T18:36:50;23.30;1.00
25208;DHT22;13153;52.316;21.166;2023-09-18T18:39:16;23.30;1.00
25208;DHT22;13153;52.316;21.166;2023-09-18T18:41:43;23.20;1.00
25208;DHT22;13153;52.316;21.166;2023-09-18T18:44:09;23.20;1.00
25208;DHT22;13153;52.316;21.166;2023-09-18T18:46:36;23.20;1.00
25208;DHT22;13153;52.316;21.166;2023-09-18T18:49:02;23.20;1.00
25208;DHT22;13153;52.316;21.166;2023-09-18T18:51:29;23.20;1.00